AirNav   Free Bose SoundSport
 
 547 users online  

03B Mansfield Municipal Airport
Mansfield, Missouri, USA

GOING TO MANSFIELD?


FAA INFORMATION EFFECTIVE 28 MARCH 2019

Location

FAA Identifier: 03B
Lat/Long: 37-07-36.4000N / 092-37-17.8000W
37-07.606667N / 092-37.296667W
37.1267778 / -92.6216111
(estimated)
Elevation: 1520 ft. / 463 m (estimated)
Variation: 03E (1995)
From city: 2 miles NW of MANSFIELD, MO
Time zone: UTC -5 (UTC -6 during Standard Time)
Zip code: 65704

Airport Operations

Airport use: Open to the public
Activation date: 09/1954
Control tower: no
ARTCC: KANSAS CITY CENTER
FSS: COLUMBIA FLIGHT SERVICE STATION
NOTAMs facility: COU (NOTAM-D service available)
Attendance: UNATNDD
Wind indicator: lighted
Segmented circle: yes
Beacon: white-green (lighted land airport)
Operates sunset to sunrise.

Airport Communications

CTAF: 122.9

Nearby radio navigation aids

VOR radial/distance  VOR name  Freq  Var
DGDr062/13.7DOGWOOD VORTAC109.4001E
SGFr108/36.7SPRINGFIELD VORTAC116.9004E

Airport Services

Parking: hangars and tiedowns
Bottled oxygen: NONE
Bulk oxygen: NONE

Runway Information

Runway 7/25

Dimensions: 3000 x 50 ft. / 914 x 15 m
Surface: asphalt/aggregate friction seal coat, in fair condition
Weight bearing capacity: 
Single wheel: 12.5
Runway edge lights: medium intensity
Gradient: 0.5% UP W.
RUNWAY 7  RUNWAY 25
Latitude: 37-07.556000N37-07.658667N
Longitude: 092-37.598167W092-36.994000W
Elevation: 1520.0 ft.1505.0 ft.
Gradient: 0.6%0.5% UP
Traffic pattern: leftleft
Markings: basic, in good conditionbasic, in good condition
Obstructions: 45 ft. trees, 650 ft. from runway, 175 ft. left and right of centerline, 10:1 slope to clear41 ft. trees, 620 ft. from runway, 120 ft. left of centerline, 10:1 slope to clear
+2-7 FT BRUSH, SMALL TREES 0-50 FT FM THLD 55-105 FT L; +1-5 FT GND 0-200 FT FM THLD L & R.

Airport Ownership and Management from official FAA records

Ownership: Publicly-owned
Owner: MANSFIELD, CITY OF
122 N. BUS. 60, P.O. BOX 467
MANSFIELD, MO 65704
Phone 417-924-3719
Manager: TERESA CLARK
1588 HWY F
MANSFIELD, MO 65704
Phone 417-924-2782
ARPT BOARD CHAIRMAN.

Airport Operational Statistics

Aircraft based on the field: 9
Single engine airplanes: 9
    
Aircraft operations: avg 26/week *
52% local general aviation
47% transient general aviation
1% military
* for 12-month period ending 31 December 2017

Additional Remarks

DEER & OTHER WILDLIFE ON & INVOF ARPT.

Instrument Procedures

There are no published instrument procedures at 03B.

Some nearby airports with instrument procedures:

KAOV - Ava Bill Martin Memorial Airport (10 nm S)
1MO - Mountain Grove Memorial Airport (15 nm E)
KTVB - Cabool Memorial Airport (26 nm E)
3DW - Downtown Airport (31 nm W)
KLBO - Floyd W Jones Lebanon Airport (31 nm N)
 
Loc | Ops | Rwys | IFR | FBO | Links
Com | Nav | Svcs | Stats | Notes

Kansas City Aviation Department
 
Area around 03B (Mansfield Municipal Airport)
 
Road maps at: MapQuest Bing Google
 
Aerial photo
WARNING: Photo may not be current or correct
Aerial photo of 03B (Mansfield Municipal Airport)
Do you have a better or more recent aerial photo of Mansfield Municipal Airport that you would like to share? If so, please send us your photo.

 
Sectional chart

 
Airport distance calculator
Flying to Mansfield Municipal Airport? Find the distance to fly.

From to 03B

Sunrise and sunset
Times for 19-Apr-2019
 Local
(UTC-5)
 Zulu
(UTC)
Morning civil twilight06:0511:05
Sunrise06:3211:32
Sunset19:4800:48
Evening civil twilight20:1501:15

Current date and time
Zulu (UTC)  20-Apr-2019 04:35:54
Local (UTC-5)  19-Apr-2019 23:35:54
 
METAR
KLBO 
31nm N 
200415Z AUTO 31004KT 10SM CLR 09/M03 A2994 RMK AO2
KSGF 
37nm W 
200352Z 32004KT 10SM CLR 08/M01 A2995 RMK AO2 SLP141 T00831006
KUNO 
38nm SE 
200353Z AUTO 31007KT 10SM CLR 09/M02 A2990 RMK AO2 SLP123 T00941022
KTBN 
43nm NE 
200356Z AUTO 30005KT 10SM CLR 09/M03 A2989 RMK AO2 SLP127 T00881034 $
KBBG 
45nm SW 
200415Z AUTO 31005KT 10SM CLR 09/M01 A2996 RMK AO2
KFWB 
45nm SW 
200415Z AUTO 29003KT 10SM CLR 09/00 A2997 RMK AO2
KBPK 
46nm S 
200353Z AUTO 35003KT 10SM CLR 08/M01 A2992 RMK AO2 SLP132 T00831006 TSNO
TAF
KSGF 
37nm W 
191723Z 1918/2018 34022G32KT P6SM SCT045 FM200000 34017G25KT P6SM SKC FM200100 33013KT P6SM SKC FM200300 32006KT P6SM SKC
KBBG 
45nm SW 
191723Z 1918/2018 33022G32KT P6SM SCT045 FM200000 33015G24KT P6SM SKC FM200100 32012KT P6SM SKC FM200300 31005KT P6SM SKC
KBPK 
46nm S 
191726Z 1918/2018 36010G22KT P6SM SCT040 BKN050 FM200000 31007KT P6SM SKC
NOTAMs
Click for the latest NOTAMs
NOTAMs are issued by the DoD/FAA and will open in a separate window not controlled by AirNav.

 

 
 

Would you like to see your business listed on this page?

 If your business provides an interesting product or service to pilots, flight crews, aircraft, or users of the Mansfield Municipal Airport, you should consider listing it here.  To start the listing process, click on the button below
 
Add a business
 

Other Pages about Mansfield Municipal Airport

Update a link
 
Copyright © AirNav, LLC. All rights reserved. Privacy Policy  Contact